Time;durP1;ratioP1;P1;durP2;ratioP2;P2;SDS_P1;SDS_P2;PMS_P1;PMS_P2;Temp;Humidity;BMP_temperature;BMP_pressure;BME280_temperature;BME280_humidity;BME280_pressure;Samples;Min_cycle;Max_cycle;Signal;HPM_P1;HPM_P2
2022/09/19 00:00:55;;;;;;;0.90;0.70;;;;;;;;;;4962578;28;20023;-76
2022/09/19 00:03:21;;;;;;;3.35;0.82;;;;;;;;;;4968040;28;20142;-75
2022/09/19 00:05:47;;;;;;;0.85;0.50;;;;;;;;;;4970783;28;20495;-75
2022/09/19 00:08:13;;;;;;;2.55;0.90;;;;;;;;;;4964407;29;20038;-75
2022/09/19 00:10:40;;;;;;;1.77;0.75;;;;;;;;;;4963733;28;20035;-75
2022/09/19 00:13:07;;;;;;;1.02;0.77;;;;;;;;;;4964878;28;20057;-76
2022/09/19 00:15:33;;;;;;;7.07;1.00;;;;;;;;;;4963440;28;20028;-76
2022/09/19 00:17:59;;;;;;;1.50;0.70;;;;;;;;;;4963420;28;20439;-76
2022/09/19 00:20:25;;;;;;;3.22;0.70;;;;;;;;;;4960432;28;20024;-76
2022/09/19 00:25:35;;;;;;;4.68;1.00;;;;;;;;;;4970522;29;20034;-77
2022/09/19 00:28:01;;;;;;;1.10;0.70;;;;;;;;;;4970160;28;20047;-75
2022/09/19 00:30:27;;;;;;;2.45;0.80;;;;;;;;;;4969282;28;20031;-76
2022/09/19 00:32:53;;;;;;;2.88;0.70;;;;;;;;;;4969917;29;20031;-76
2022/09/19 00:35:20;;;;;;;4.13;1.00;;;;;;;;;;4969354;28;20057;-76
2022/09/19 00:37:46;;;;;;;1.05;0.65;;;;;;;;;;4967178;28;20042;-76
2022/09/19 00:40:12;;;;;;;2.85;0.90;;;;;;;;;;4965151;28;20122;-76
2022/09/19 00:42:38;;;;;;;2.83;1.00;;;;;;;;;;4973335;29;20027;-75
2022/09/19 00:45:07;;;;;;;3.90;1.08;;;;;;;;;;4978421;28;20032;-74
2022/09/19 00:47:35;;;;;;;5.35;0.77;;;;;;;;;;4977353;28;20059;-75
2022/09/19 00:50:02;;;;;;;4.28;0.90;;;;;;;;;;4978707;28;20151;-74
2022/09/19 00:52:41;;;;;;;5.57;1.00;;;;;;;;;;4978290;28;20023;-74
2022/09/19 00:55:07;;;;;;;2.92;1.00;;;;;;;;;;4978063;28;20039;-75
2022/09/19 00:57:43;;;;;;;4.53;1.30;;;;;;;;;;4977416;28;20022;-74
2022/09/19 01:00:09;;;;;;;4.25;1.40;;;;;;;;;;4977779;28;20016;-75
2022/09/19 01:02:36;;;;;;;2.17;1.35;;;;;;;;;;4970933;28;20492;-74
2022/09/19 01:05:03;;;;;;;5.60;1.75;;;;;;;;;;4960808;29;20068;-75
2022/09/19 01:07:32;;;;;;;6.88;1.73;;;;;;;;;;4955047;28;20043;-75
2022/09/19 01:09:58;;;;;;;4.75;1.58;;;;;;;;;;4956297;28;20031;-76
2022/09/19 01:12:27;;;;;;;3.50;1.75;;;;;;;;;;4975365;29;20042;-75
2022/09/19 01:15:00;;;;;;;6.40;2.13;;;;;;;;;;4957401;28;20427;-76
2022/09/19 01:17:42;;;;;;;4.78;2.15;;;;;;;;;;4958351;29;20431;-76
2022/09/19 01:20:08;;;;;;;6.53;1.88;;;;;;;;;;4960428;28;20031;-75
2022/09/19 01:22:43;;;;;;;6.05;2.13;;;;;;;;;;4977343;28;20019;-74
2022/09/19 01:25:08;;;;;;;6.10;1.98;;;;;;;;;;4978017;28;20011;-75
2022/09/19 01:27:40;;;;;;;5.82;2.30;;;;;;;;;;4977923;28;20042;-75
2022/09/19 01:30:07;;;;;;;4.03;1.80;;;;;;;;;;4977989;28;20022;-74
2022/09/19 01:32:35;;;;;;;8.32;2.47;;;;;;;;;;4977198;28;20031;-75
2022/09/19 01:35:03;;;;;;;7.50;2.47;;;;;;;;;;4952805;28;20038;-75
2022/09/19 01:37:38;;;;;;;7.22;2.03;;;;;;;;;;4953142;29;20024;-75
2022/09/19 01:40:06;;;;;;;9.68;2.40;;;;;;;;;;4953023;28;20024;-74
2022/09/19 01:42:32;;;;;;;6.15;2.40;;;;;;;;;;4953506;29;20028;-77
2022/09/19 01:44:58;;;;;;;3.88;2.03;;;;;;;;;;4953081;29;20030;-76
2022/09/19 01:47:24;;;;;;;8.15;1.85;;;;;;;;;;4952908;29;20035;-74
2022/09/19 01:49:56;;;;;;;3.60;2.13;;;;;;;;;;4952880;28;20027;-75
2022/09/19 01:52:28;;;;;;;6.55;2.80;;;;;;;;;;4953050;28;20023;-76
2022/09/19 01:55:13;;;;;;;6.22;2.90;;;;;;;;;;4952831;29;20030;-75
2022/09/19 01:57:47;;;;;;;5.45;2.58;;;;;;;;;;4952733;29;20643;-76
2022/09/19 02:00:18;;;;;;;7.05;2.28;;;;;;;;;;4951524;28;20073;-76
2022/09/19 02:03:03;;;;;;;8.95;4.88;;;;;;;;;;4952943;28;20035;-76
2022/09/19 02:05:35;;;;;;;8.20;3.17;;;;;;;;;;4952970;29;20027;-75
2022/09/19 02:08:20;;;;;;;4.63;2.08;;;;;;;;;;4953075;29;20503;-75
2022/09/19 02:10:54;;;;;;;4.35;1.70;;;;;;;;;;4953490;28;20031;-75
2022/09/19 02:13:23;;;;;;;5.43;1.92;;;;;;;;;;4955788;28;20098;-76
2022/09/19 02:15:53;;;;;;;5.28;2.70;;;;;;;;;;4951318;29;20057;-76
2022/09/19 02:18:45;;;;;;;4.32;2.30;;;;;;;;;;4951644;28;20035;-75
2022/09/19 02:21:16;;;;;;;4.28;1.73;;;;;;;;;;4952686;29;20031;-76
2022/09/19 02:23:47;;;;;;;3.42;2.00;;;;;;;;;;4953088;29;20050;-77
2022/09/19 02:26:14;;;;;;;5.90;1.90;;;;;;;;;;4951147;29;20389;-76
2022/09/19 02:28:41;;;;;;;5.35;1.88;;;;;;;;;;4952797;28;20096;-75
2022/09/19 02:31:08;;;;;;;5.93;2.20;;;;;;;;;;4953455;29;20043;-76
2022/09/19 02:33:35;;;;;;;5.18;1.85;;;;;;;;;;4953087;29;20023;-76
2022/09/19 02:36:09;;;;;;;6.50;1.70;;;;;;;;;;4952650;29;20085;-76
2022/09/19 02:38:39;;;;;;;4.30;1.97;;;;;;;;;;4952906;28;20484;-76
2022/09/19 02:41:10;;;;;;;5.57;1.70;;;;;;;;;;4954606;28;20023;-76
2022/09/19 02:44:00;;;;;;;3.58;1.67;;;;;;;;;;4954177;29;20038;-77
2022/09/19 02:46:40;;;;;;;4.95;1.75;;;;;;;;;;4960860;28;20043;-76
2022/09/19 02:49:08;;;;;;;4.65;2.10;;;;;;;;;;4954805;28;20027;-77
2022/09/19 02:51:55;;;;;;;5.63;1.90;;;;;;;;;;4952840;28;20038;-75
2022/09/19 02:54:26;;;;;;;3.15;1.48;;;;;;;;;;4952834;28;20035;-76
2022/09/19 02:56:56;;;;;;;4.93;1.55;;;;;;;;;;4952846;29;20054;-76
2022/09/19 02:59:25;;;;;;;4.40;1.92;;;;;;;;;;4954316;28;20077;-76
2022/09/19 03:01:55;;;;;;;4.63;1.90;;;;;;;;;;4952721;28;20092;-76
2022/09/19 03:04:25;;;;;;;6.00;1.90;;;;;;;;;;4952364;28;20039;-75
2022/09/19 03:07:09;;;;;;;3.58;1.60;;;;;;;;;;4952041;29;20034;-76
2022/09/19 03:09:35;;;;;;;3.05;1.52;;;;;;;;;;4952828;28;20499;-77
2022/09/19 03:12:14;;;;;;;7.57;1.63;;;;;;;;;;4952226;28;20035;-75
2022/09/19 03:14:40;;;;;;;3.42;1.83;;;;;;;;;;4952752;28;20379;-75
2022/09/19 03:17:07;;;;;;;6.07;1.70;;;;;;;;;;4955531;29;20124;-76
2022/09/19 03:19:33;;;;;;;8.05;2.75;;;;;;;;;;4954138;28;20129;-76
2022/09/19 03:21:59;;;;;;;4.32;2.25;;;;;;;;;;4955789;28;20035;-76
2022/09/19 03:24:26;;;;;;;3.90;1.90;;;;;;;;;;4965291;28;20035;-76
2022/09/19 03:26:52;;;;;;;4.80;2.33;;;;;;;;;;4976122;28;20027;-76
2022/09/19 03:29:18;;;;;;;5.00;2.47;;;;;;;;;;4976006;28;20269;-75
2022/09/19 03:31:45;;;;;;;4.30;2.10;;;;;;;;;;4976104;28;20019;-74
2022/09/19 03:34:12;;;;;;;7.22;2.67;;;;;;;;;;4975601;28;20038;-75
2022/09/19 03:36:40;;;;;;;8.32;3.63;;;;;;;;;;4968256;29;20031;-75
2022/09/19 03:39:07;;;;;;;6.72;2.95;;;;;;;;;;4967479;28;20073;-77
2022/09/19 03:41:32;;;;;;;4.63;2.40;;;;;;;;;;4952147;29;20373;-76
2022/09/19 03:44:00;;;;;;;5.30;2.25;;;;;;;;;;4951164;29;20046;-76
2022/09/19 03:46:26;;;;;;;4.60;2.08;;;;;;;;;;4956399;28;20058;-76
2022/09/19 03:48:52;;;;;;;6.05;1.73;;;;;;;;;;4970192;28;20034;-74
2022/09/19 03:51:18;;;;;;;4.40;2.00;;;;;;;;;;4973784;28;20039;-75
2022/09/19 03:53:45;;;;;;;5.75;2.28;;;;;;;;;;4974142;28;20031;-75
2022/09/19 03:56:12;;;;;;;3.85;2.10;;;;;;;;;;4975689;28;20034;-74
2022/09/19 03:58:38;;;;;;;4.63;2.17;;;;;;;;;;4968062;28;20039;-76
2022/09/19 04:01:06;;;;;;;8.07;1.90;;;;;;;;;;4954096;29;20031;-77
2022/09/19 04:03:33;;;;;;;8.50;2.42;;;;;;;;;;4961245;28;20031;-76
2022/09/19 04:05:59;;;;;;;10.77;2.65;;;;;;;;;;4960895;28;20023;-76
2022/09/19 04:08:25;;;;;;;4.28;1.80;;;;;;;;;;4954713;28;20027;-75
2022/09/19 04:10:52;;;;;;;6.57;2.08;;;;;;;;;;4951618;28;20031;-75
2022/09/19 04:13:20;;;;;;;6.13;2.63;;;;;;;;;;4951548;29;20408;-75
2022/09/19 04:15:46;;;;;;;3.50;2.00;;;;;;;;;;4951224;28;20404;-77
2022/09/19 04:18:13;;;;;;;6.75;2.40;;;;;;;;;;4951719;29;20031;-77
2022/09/19 04:20:39;;;;;;;4.32;2.25;;;;;;;;;;4951391;28;20027;-75
2022/09/19 04:23:05;;;;;;;6.10;1.60;;;;;;;;;;4951901;28;20031;-75
2022/09/19 04:25:35;;;;;;;3.33;1.50;;;;;;;;;;4951167;28;20085;-75
2022/09/19 04:28:05;;;;;;;12.93;2.20;;;;;;;;;;4951707;28;20133;-76
2022/09/19 04:30:31;;;;;;;7.15;2.03;;;;;;;;;;4951487;28;20027;-77
2022/09/19 04:32:59;;;;;;;8.00;2.53;;;;;;;;;;4951014;29;20038;-75
2022/09/19 04:35:26;;;;;;;3.35;1.92;;;;;;;;;;4951424;28;20388;-75
2022/09/19 04:37:52;;;;;;;5.57;1.55;;;;;;;;;;4950246;29;20024;-75
2022/09/19 04:40:21;;;;;;;4.32;1.65;;;;;;;;;;4951746;28;20058;-72
2022/09/19 04:42:47;;;;;;;8.40;1.77;;;;;;;;;;4951015;28;20428;-74
2022/09/19 04:45:20;;;;;;;11.60;2.72;;;;;;;;;;4950840;28;20031;-73
2022/09/19 04:47:47;;;;;;;11.07;2.30;;;;;;;;;;4950907;28;20516;-74
2022/09/19 04:50:12;;;;;;;7.43;2.30;;;;;;;;;;4951035;28;20181;-74
2022/09/19 04:52:39;;;;;;;8.65;2.45;;;;;;;;;;4956685;29;20086;-74
2022/09/19 04:55:06;;;;;;;8.70;2.30;;;;;;;;;;4956403;29;20050;-74
2022/09/19 04:57:31;;;;;;;6.63;2.05;;;;;;;;;;4955078;28;20031;-74
2022/09/19 04:59:57;;;;;;;5.63;1.48;;;;;;;;;;4954850;28;20034;-75
2022/09/19 05:02:23;;;;;;;7.45;1.90;;;;;;;;;;4956327;28;20038;-76
2022/09/19 05:04:51;;;;;;;9.93;1.98;;;;;;;;;;4954560;28;20069;-77
2022/09/19 05:07:19;;;;;;;16.00;2.00;;;;;;;;;;4954761;28;20031;-75
2022/09/19 05:09:45;;;;;;;9.18;2.20;;;;;;;;;;4955726;28;20039;-77
2022/09/19 05:12:11;;;;;;;9.43;2.13;;;;;;;;;;4955041;28;20028;-76
2022/09/19 05:14:37;;;;;;;6.15;2.00;;;;;;;;;;4955181;28;20169;-76
2022/09/19 05:17:03;;;;;;;13.23;3.05;;;;;;;;;;4955471;28;20573;-76
2022/09/19 05:19:32;;;;;;;12.27;2.03;;;;;;;;;;4956356;28;20024;-77
2022/09/19 05:21:57;;;;;;;17.10;3.13;;;;;;;;;;4957671;28;20054;-75
2022/09/19 05:24:24;;;;;;;8.38;2.20;;;;;;;;;;4957271;28;20445;-76
2022/09/19 05:26:49;;;;;;;14.85;2.83;;;;;;;;;;4955347;28;20024;-78
2022/09/19 05:29:17;;;;;;;15.50;3.38;;;;;;;;;;4954418;28;20365;-74
2022/09/19 05:31:45;;;;;;;13.68;3.00;;;;;;;;;;4953783;28;20077;-75
2022/09/19 05:34:13;;;;;;;13.88;3.25;;;;;;;;;;4953517;28;20403;-75
2022/09/19 05:36:39;;;;;;;18.85;2.50;;;;;;;;;;4953126;29;20019;-76
2022/09/19 05:39:06;;;;;;;9.13;2.35;;;;;;;;;;4954022;28;20046;-76
2022/09/19 05:41:32;;;;;;;11.68;2.35;;;;;;;;;;4955291;28;20083;-76
2022/09/19 05:43:59;;;;;;;15.43;2.70;;;;;;;;;;4954512;28;20489;-76
2022/09/19 05:46:25;;;;;;;16.70;2.88;;;;;;;;;;4955143;28;20066;-76
2022/09/19 05:48:51;;;;;;;20.35;4.13;;;;;;;;;;4955026;28;20015;-76
2022/09/19 05:51:17;;;;;;;15.82;3.63;;;;;;;;;;4954948;28;20404;-75
2022/09/19 05:53:52;;;;;;;15.88;2.92;;;;;;;;;;4954250;28;20034;-75
2022/09/19 05:56:18;;;;;;;16.52;4.28;;;;;;;;;;4953930;28;20384;-76
2022/09/19 05:58:44;;;;;;;19.88;3.20;;;;;;;;;;4953965;28;20031;-76
2022/09/19 06:01:11;;;;;;;12.95;2.58;;;;;;;;;;4953384;28;20039;-77
2022/09/19 06:03:38;;;;;;;21.10;3.40;;;;;;;;;;4957451;28;20035;-77
2022/09/19 06:06:12;;;;;;;17.45;3.20;;;;;;;;;;4954551;29;20391;-76
2022/09/19 06:08:39;;;;;;;17.17;3.17;;;;;;;;;;4956235;28;20121;-76
2022/09/19 06:11:05;;;;;;;22.38;3.50;;;;;;;;;;4958052;28;20024;-76
2022/09/19 06:16:17;;;;;;;22.27;3.33;;;;;;;;;;4974048;28;20066;-75
2022/09/19 06:18:43;;;;;;;15.98;2.83;;;;;;;;;;4976084;28;20015;-75
2022/09/19 06:21:09;;;;;;;22.00;4.45;;;;;;;;;;4975725;28;20036;-76
2022/09/19 06:23:35;;;;;;;19.33;2.92;;;;;;;;;;4968462;28;20027;-76
2022/09/19 06:26:01;;;;;;;13.40;2.83;;;;;;;;;;4955847;29;20468;-77
2022/09/19 06:28:27;;;;;;;25.20;3.42;;;;;;;;;;4955711;28;20387;-76
2022/09/19 06:30:53;;;;;;;15.95;2.80;;;;;;;;;;4958949;28;20027;-77
2022/09/19 06:33:19;;;;;;;20.95;2.78;;;;;;;;;;4964364;28;20110;-77
2022/09/19 06:35:45;;;;;;;23.35;3.30;;;;;;;;;;4957672;28;20028;-76
2022/09/19 06:38:11;;;;;;;25.13;2.90;;;;;;;;;;4955819;29;20027;-76
2022/09/19 06:40:38;;;;;;;34.83;3.50;;;;;;;;;;4954519;28;20034;-76
2022/09/19 06:43:05;;;;;;;24.75;3.75;;;;;;;;;;4954459;28;20510;-76
2022/09/19 06:45:37;;;;;;;34.72;7.38;;;;;;;;;;4953681;28;20412;-75
2022/09/19 06:48:03;;;;;;;50.20;10.52;;;;;;;;;;4952043;28;20031;-75
2022/09/19 06:50:31;;;;;;;41.88;10.30;;;;;;;;;;5054141;28;20053;-75
2022/09/19 06:52:57;;;;;;;23.67;3.88;;;;;;;;;;5054451;28;20017;-76
2022/09/19 06:55:25;;;;;;;37.67;8.35;;;;;;;;;;5053731;28;20021;-78
2022/09/19 06:57:58;;;;;;;66.90;17.80;;;;;;;;;;5053979;28;20040;-76
2022/09/19 07:00:25;;;;;;;71.82;20.17;;;;;;;;;;5053693;28;20438;-76
2022/09/19 07:03:02;;;;;;;65.95;17.90;;;;;;;;;;5054390;28;20140;-78
2022/09/19 07:05:28;;;;;;;109.03;31.52;;;;;;;;;;5052674;28;20029;-77
2022/09/19 07:07:54;;;;;;;59.80;14.55;;;;;;;;;;5054538;28;20025;-76
2022/09/19 07:10:20;;;;;;;57.15;15.55;;;;;;;;;;5053975;28;20405;-76
2022/09/19 07:13:16;;;;;;;44.00;7.70;;;;;;;;;;5054938;28;20032;-76
2022/09/19 07:15:42;;;;;;;37.78;7.85;;;;;;;;;;5053693;28;20036;-75
2022/09/19 07:18:10;;;;;;;36.15;4.45;;;;;;;;;;5053803;28;20478;-74
2022/09/19 07:20:37;;;;;;;37.45;6.00;;;;;;;;;;5055191;28;20139;-76
2022/09/19 07:23:03;;;;;;;34.90;4.68;;;;;;;;;;5056162;28;20021;-76
2022/09/19 07:25:29;;;;;;;32.35;5.63;;;;;;;;;;5054596;28;20397;-75
2022/09/19 07:27:56;;;;;;;35.88;5.35;;;;;;;;;;5053324;28;20555;-77
2022/09/19 07:30:22;;;;;;;41.85;5.47;;;;;;;;;;5052469;28;20116;-76
2022/09/19 07:32:48;;;;;;;47.90;11.48;;;;;;;;;;5054488;28;20072;-76
2022/09/19 07:35:14;;;;;;;40.10;7.82;;;;;;;;;;5054722;28;20494;-76
2022/09/19 07:37:40;;;;;;;41.58;5.88;;;;;;;;;;5056099;28;20028;-75
2022/09/19 07:40:06;;;;;;;29.63;5.32;;;;;;;;;;5054316;28;20040;-76
2022/09/19 07:42:32;;;;;;;57.53;10.38;;;;;;;;;;5054384;28;20086;-78
2022/09/19 07:44:58;;;;;;;43.47;7.18;;;;;;;;;;5058168;28;20059;-78
2022/09/19 07:47:28;;;;;;;34.58;5.00;;;;;;;;;;5065072;28;20029;-75
2022/09/19 07:49:56;;;;;;;42.25;5.72;;;;;;;;;;5064437;28;20032;-75
2022/09/19 07:52:22;;;;;;;26.70;4.90;;;;;;;;;;5064653;28;20374;-75
2022/09/19 07:54:49;;;;;;;32.58;5.97;;;;;;;;;;5062647;28;20021;-75
2022/09/19 07:57:16;;;;;;;41.92;5.10;;;;;;;;;;5062421;28;20046;-80
2022/09/19 07:59:42;;;;;;;44.63;5.82;;;;;;;;;;5067751;28;20025;-76
2022/09/19 08:02:10;;;;;;;46.63;6.25;;;;;;;;;;5071681;28;20052;-74
2022/09/19 08:04:39;;;;;;;46.17;10.60;;;;;;;;;;5075001;28;20028;-74
2022/09/19 08:07:06;;;;;;;38.83;8.63;;;;;;;;;;5076567;28;20041;-75
2022/09/19 08:09:33;;;;;;;46.33;8.77;;;;;;;;;;5072420;28;20033;-76
2022/09/19 08:12:06;;;;;;;40.50;5.97;;;;;;;;;;5065304;28;20033;-76
2022/09/19 08:14:32;;;;;;;55.95;11.60;;;;;;;;;;5069699;28;20045;-74
2022/09/19 08:16:58;;;;;;;36.47;6.88;;;;;;;;;;5064944;28;20044;-76
2022/09/19 08:19:24;;;;;;;53.60;8.38;;;;;;;;;;5057903;28;20024;-74
2022/09/19 08:21:51;;;;;;;35.60;5.13;;;;;;;;;;5052477;28;20375;-74
2022/09/19 08:24:17;;;;;;;29.55;4.90;;;;;;;;;;5070142;28;20081;-73
2022/09/19 08:26:43;;;;;;;34.75;4.78;;;;;;;;;;5069081;28;20294;-74
2022/09/19 08:29:09;;;;;;;41.40;5.15;;;;;;;;;;4977212;28;20016;-74
2022/09/19 08:31:36;;;;;;;23.17;4.50;;;;;;;;;;4975258;28;20083;-74
2022/09/19 08:34:02;;;;;;;34.60;4.25;;;;;;;;;;4977120;29;20078;-74
2022/09/19 08:36:28;;;;;;;27.67;4.63;;;;;;;;;;4976863;28;20028;-75
2022/09/19 08:38:54;;;;;;;34.67;6.05;;;;;;;;;;4974859;28;20043;-74
2022/09/19 08:41:32;;;;;;;29.35;5.13;;;;;;;;;;4976071;28;20046;-74
2022/09/19 08:44:15;;;;;;;26.35;3.65;;;;;;;;;;4976752;28;20038;-75
2022/09/19 08:46:54;;;;;;;21.00;3.40;;;;;;;;;;4975700;28;20034;-74
2022/09/19 08:49:24;;;;;;;22.05;3.80;;;;;;;;;;4975402;28;20023;-73
2022/09/19 08:51:50;;;;;;;22.92;3.50;;;;;;;;;;4956638;28;20030;-76
2022/09/19 08:54:30;;;;;;;21.83;3.35;;;;;;;;;;4955221;29;20113;-75
2022/09/19 08:56:57;;;;;;;24.92;3.40;;;;;;;;;;4956245;29;20039;-76
2022/09/19 08:59:24;;;;;;;25.52;3.67;;;;;;;;;;4957138;28;20023;-76
2022/09/19 09:01:55;;;;;;;20.67;3.97;;;;;;;;;;4956069;28;20023;-75
2022/09/19 09:04:24;;;;;;;15.60;3.45;;;;;;;;;;4955921;28;20440;-76
2022/09/19 09:06:55;;;;;;;28.13;3.67;;;;;;;;;;4954710;28;20102;-75
2022/09/19 09:09:27;;;;;;;16.30;3.70;;;;;;;;;;4956103;28;20028;-75
2022/09/19 09:12:02;;;;;;;33.58;4.57;;;;;;;;;;4954724;28;20085;-77
2022/09/19 09:14:35;;;;;;;20.58;3.97;;;;;;;;;;4957406;28;20038;-76
2022/09/19 09:17:17;;;;;;;19.65;3.33;;;;;;;;;;4954406;28;20019;-76
2022/09/19 09:20:02;;;;;;;17.42;3.17;;;;;;;;;;4957485;28;20027;-76
2022/09/19 09:22:31;;;;;;;15.45;2.60;;;;;;;;;;4953560;29;20023;-76
2022/09/19 09:25:01;;;;;;;19.40;3.00;;;;;;;;;;4956639;28;20035;-77
2022/09/19 09:27:33;;;;;;;21.77;3.80;;;;;;;;;;4956766;28;20023;-76
2022/09/19 09:30:02;;;;;;;17.23;3.50;;;;;;;;;;4956416;28;20484;-75
2022/09/19 09:32:32;;;;;;;14.57;3.17;;;;;;;;;;4955666;28;20397;-77
2022/09/19 09:35:03;;;;;;;17.75;3.00;;;;;;;;;;4954307;28;20073;-73
2022/09/19 09:37:36;;;;;;;20.25;3.45;;;;;;;;;;4953122;28;20445;-74
2022/09/19 09:40:12;;;;;;;24.05;3.38;;;;;;;;;;4953118;28;20111;-74
2022/09/19 09:42:45;;;;;;;21.20;4.75;;;;;;;;;;4954439;29;20111;-75
2022/09/19 09:45:25;;;;;;;23.58;3.88;;;;;;;;;;4955293;28;20480;-75
2022/09/19 09:47:58;;;;;;;18.95;4.78;;;;;;;;;;4966744;28;20046;-74
2022/09/19 09:50:36;;;;;;;32.08;9.82;;;;;;;;;;4977072;28;20012;-75
2022/09/19 09:53:02;;;;;;;14.07;3.83;;;;;;;;;;4977269;28;20020;-74
2022/09/19 09:58:33;;;;;;;19.55;4.22;;;;;;;;;;4963002;29;20050;-76
2022/09/19 10:04:03;;;;;;;17.13;2.80;;;;;;;;;;4957186;29;20038;-75
2022/09/19 10:06:31;;;;;;;19.25;4.63;;;;;;;;;;4960996;28;20079;-76
2022/09/19 10:08:59;;;;;;;18.90;4.43;;;;;;;;;;4955989;28;20123;-76
2022/09/19 10:11:39;;;;;;;16.35;2.35;;;;;;;;;;4955026;29;20118;-75
2022/09/19 10:14:08;;;;;;;10.80;2.33;;;;;;;;;;4954874;28;20055;-74
2022/09/19 10:16:36;;;;;;;17.63;2.78;;;;;;;;;;4953010;29;20381;-75
2022/09/19 10:19:19;;;;;;;11.38;2.17;;;;;;;;;;4961830;28;20026;-75
2022/09/19 10:21:45;;;;;;;10.98;2.55;;;;;;;;;;4953533;29;20504;-76
2022/09/19 10:24:30;;;;;;;15.15;2.78;;;;;;;;;;4953852;28;20447;-76
2022/09/19 10:27:00;;;;;;;18.63;3.00;;;;;;;;;;4953618;28;20085;-75
2022/09/19 10:29:26;;;;;;;11.48;2.00;;;;;;;;;;4954412;28;20119;-75
2022/09/19 10:31:54;;;;;;;7.05;1.92;;;;;;;;;;4954527;28;20106;-75
2022/09/19 10:34:27;;;;;;;13.07;2.60;;;;;;;;;;4953808;28;20023;-75
2022/09/19 10:36:53;;;;;;;14.32;2.80;;;;;;;;;;4954862;28;20298;-74
2022/09/19 10:39:22;;;;;;;12.35;2.35;;;;;;;;;;4954709;28;20381;-73
2022/09/19 10:41:49;;;;;;;10.52;1.70;;;;;;;;;;4953814;28;20385;-75
2022/09/19 10:44:22;;;;;;;11.85;3.60;;;;;;;;;;4955147;29;20027;-74
2022/09/19 10:46:49;;;;;;;9.48;2.40;;;;;;;;;;4952977;28;20125;-74
2022/09/19 10:49:24;;;;;;;9.13;1.77;;;;;;;;;;4953140;28;20026;-74
2022/09/19 10:51:50;;;;;;;;;;;;;;;;;;4953725;28;20026;-75
2022/09/19 10:54:26;;;;;;;14.23;2.08;;;;;;;;;;4954177;28;19907;-75
2022/09/19 10:56:58;;;;;;;9.52;1.88;;;;;;;;;;4952579;28;20053;-74
2022/09/19 10:59:35;;;;;;;7.18;1.70;;;;;;;;;;4952977;28;20054;-75
2022/09/19 11:02:10;;;;;;;8.23;1.70;;;;;;;;;;4954439;28;20027;-75
2022/09/19 11:04:37;;;;;;;11.02;2.50;;;;;;;;;;4953791;29;20031;-75
2022/09/19 11:07:16;;;;;;;4.32;1.42;;;;;;;;;;4970545;28;20036;-74
2022/09/19 11:09:44;;;;;;;7.55;2.33;;;;;;;;;;4972058;28;20019;-74
2022/09/19 11:12:17;;;;;;;7.38;1.40;;;;;;;;;;4975932;28;20046;-74
2022/09/19 11:14:45;;;;;;;8.18;1.52;;;;;;;;;;4975885;28;20019;-74
2022/09/19 11:17:29;;;;;;;8.25;1.60;;;;;;;;;;4973519;29;20062;-76
2022/09/19 11:20:08;;;;;;;8.43;1.58;;;;;;;;;;4954168;28;20020;-76
2022/09/19 11:22:53;;;;;;;8.40;1.90;;;;;;;;;;4956524;28;20147;-75
2022/09/19 11:25:19;;;;;;;7.47;2.28;;;;;;;;;;4957712;28;20073;-74
2022/09/19 11:27:52;;;;;;;4.95;1.63;;;;;;;;;;4954509;29;20488;-75
2022/09/19 11:30:25;;;;;;;6.80;1.35;;;;;;;;;;4958369;28;20027;-75
2022/09/19 11:32:53;;;;;;;;;;;;;;;;;;4963460;28;20031;-75
2022/09/19 11:35:31;;;;;;;11.88;2.28;;;;;;;;;;4956953;28;19906;-74
2022/09/19 11:38:07;;;;;;;12.52;2.05;;;;;;;;;;4956009;29;20035;-76
2022/09/19 11:40:41;;;;;;;8.80;2.13;;;;;;;;;;4953282;28;20031;-76
2022/09/19 11:43:12;;;;;;;12.63;2.47;;;;;;;;;;4951382;29;20042;-77
2022/09/19 11:46:03;;;;;;;11.40;2.55;;;;;;;;;;4952803;28;20019;-76
2022/09/19 11:48:31;;;;;;;14.55;2.30;;;;;;;;;;4935748;28;20067;-76
2022/09/19 11:51:04;;;;;;;8.02;1.98;;;;;;;;;;4953716;28;20050;-76
2022/09/19 11:53:30;;;;;;;8.85;2.40;;;;;;;;;;4956808;28;20035;-74
2022/09/19 11:56:06;;;;;;;10.77;2.35;;;;;;;;;;4952919;28;20023;-75
2022/09/19 11:58:54;;;;;;;11.90;2.15;;;;;;;;;;4954221;28;20024;-75
2022/09/19 12:01:21;;;;;;;11.98;2.28;;;;;;;;;;4955123;29;20051;-76
2022/09/19 12:04:07;;;;;;;13.18;2.00;;;;;;;;;;4954309;29;20111;-77
2022/09/19 12:06:51;;;;;;;8.38;1.85;;;;;;;;;;4932971;29;20050;-75
2022/09/19 12:09:29;;;;;;;12.27;2.92;;;;;;;;;;4960658;28;20027;-74
2022/09/19 12:11:57;;;;;;;21.38;3.50;;;;;;;;;;4952454;28;20137;-76
2022/09/19 12:14:39;;;;;;;8.98;2.17;;;;;;;;;;4951988;29;20495;-74
2022/09/19 12:17:10;;;;;;;7.90;2.15;;;;;;;;;;4956897;29;20027;-77
2022/09/19 12:19:40;;;;;;;14.23;2.78;;;;;;;;;;4953052;28;20080;-75
2022/09/19 12:22:13;;;;;;;7.43;1.58;;;;;;;;;;4962297;28;20031;-74
2022/09/19 12:24:54;;;;;;;9.05;3.30;;;;;;;;;;4963407;28;20030;-74
2022/09/19 12:27:20;;;;;;;7.78;2.00;;;;;;;;;;4961247;29;20027;-76
2022/09/19 12:29:50;;;;;;;6.60;1.73;;;;;;;;;;4964483;28;20024;-77
2022/09/19 12:32:19;;;;;;;4.70;1.77;;;;;;;;;;4962977;29;20024;-75
2022/09/19 12:34:55;;;;;;;5.72;1.80;;;;;;;;;;4958167;28;20027;-75
2022/09/19 12:37:36;;;;;;;6.85;1.73;;;;;;;;;;4958292;28;20031;-75
2022/09/19 12:40:24;;;;;;;8.57;2.20;;;;;;;;;;4957481;28;20138;-75
2022/09/19 12:42:56;;;;;;;4.63;1.00;;;;;;;;;;4955714;28;20520;-75
2022/09/19 12:45:25;;;;;;;6.68;1.30;;;;;;;;;;4958717;28;20027;-77
2022/09/19 12:47:54;;;;;;;8.00;1.33;;;;;;;;;;4956381;29;20055;-77
2022/09/19 12:50:33;;;;;;;6.95;1.70;;;;;;;;;;4953791;28;20023;-74
2022/09/19 12:53:05;;;;;;;7.47;1.52;;;;;;;;;;4951737;29;20034;-75
2022/09/19 12:55:45;;;;;;;10.85;3.00;;;;;;;;;;4952342;28;20040;-76
2022/09/19 12:58:16;;;;;;;8.57;1.70;;;;;;;;;;4955451;28;20074;-76
2022/09/19 13:00:45;;;;;;;11.88;2.28;;;;;;;;;;4956737;28;20039;-76
2022/09/19 13:03:46;;;;;;;11.20;2.55;;;;;;;;;;4952018;28;20023;-75
2022/09/19 13:06:17;;;;;;;10.10;1.95;;;;;;;;;;4911311;29;20052;-75
2022/09/19 13:08:50;;;;;;;15.18;3.08;;;;;;;;;;4945155;28;20071;-76
2022/09/19 13:11:24;;;;;;;15.13;5.57;;;;;;;;;;4972012;23;20044;-72
2022/09/19 13:13:53;;;;;;;29.45;14.45;;;;;;;;;;4954156;28;20111;-72
2022/09/19 13:16:28;;;;;;;12.35;4.18;;;;;;;;;;4954957;28;20510;-75
2022/09/19 13:24:42;;;;;;;3.30;1.17;;;;;;;;;;4935954;29;20121;-72
2022/09/19 13:27:09;;;;;;;11.98;6.63;;;;;;;;;;4936618;29;20032;-73
2022/09/19 13:29:35;;;;;;;6.45;2.60;;;;;;;;;;4937669;29;20047;-76
2022/09/19 13:32:24;;;;;;;4.63;1.30;;;;;;;;;;4937180;29;20027;-78
2022/09/19 13:35:11;;;;;;;4.60;2.70;;;;;;;;;;4936605;28;20024;-73
2022/09/19 13:37:37;;;;;;;4.00;1.40;;;;;;;;;;4938691;29;20046;-73
2022/09/19 13:40:15;;;;;;;4.78;1.55;;;;;;;;;;4943196;28;20122;-71
2022/09/19 13:42:48;;;;;;;4.32;1.88;;;;;;;;;;4936280;29;20050;-72
2022/09/19 13:45:26;;;;;;;6.43;1.60;;;;;;;;;;4935521;28;20038;-72
2022/09/19 13:47:54;;;;;;;5.03;2.42;;;;;;;;;;4934329;29;20027;-73
2022/09/19 13:50:28;;;;;;;4.25;1.20;;;;;;;;;;4936266;29;20052;-74
2022/09/19 13:53:00;;;;;;;5.05;1.15;;;;;;;;;;4935815;29;20027;-74
2022/09/19 13:55:35;;;;;;;9.85;2.20;;;;;;;;;;4935176;29;20058;-74
2022/09/19 13:58:18;;;;;;;5.25;1.70;;;;;;;;;;4934799;29;20172;-74
2022/09/19 14:00:47;;;;;;;6.97;2.30;;;;;;;;;;4934371;29;20077;-72
2022/09/19 14:03:34;;;;;;;6.63;1.45;;;;;;;;;;4935019;29;20028;-72
2022/09/19 14:06:26;;;;;;;7.82;2.30;;;;;;;;;;4934639;29;20461;-74
2022/09/19 14:09:10;;;;;;;3.33;1.02;;;;;;;;;;4935045;29;20040;-72
2022/09/19 14:11:36;;;;;;;;;;;;;;;;;;4935247;29;20480;-73
2022/09/19 14:14:22;;;;;;;5.38;2.00;;;;;;;;;;4934917;29;19918;-73
2022/09/19 14:17:09;;;;;;;4.80;1.20;;;;;;;;;;4934185;28;20107;-73
2022/09/19 14:19:53;;;;;;;4.15;1.10;;;;;;;;;;4936215;29;20031;-75
2022/09/19 14:22:39;;;;;;;8.18;3.53;;;;;;;;;;4936619;29;20027;-74
2022/09/19 14:25:18;;;;;;;5.22;1.50;;;;;;;;;;4936408;29;20081;-74
2022/09/19 14:27:53;;;;;;;8.25;1.50;;;;;;;;;;4937950;29;20485;-73
2022/09/19 14:30:23;;;;;;;9.80;4.05;;;;;;;;;;4936995;29;20093;-72
2022/09/19 14:33:07;;;;;;;8.55;2.20;;;;;;;;;;4937796;29;20032;-75
2022/09/19 14:35:34;;;;;;;9.25;1.60;;;;;;;;;;4933691;29;20028;-75
2022/09/19 14:38:00;;;;;;;7.55;2.85;;;;;;;;;;4933447;29;20024;-73
2022/09/19 14:40:27;;;;;;;9.10;2.33;;;;;;;;;;4933611;29;20086;-72
2022/09/19 14:43:09;;;;;;;5.70;1.50;;;;;;;;;;4934199;29;20435;-73
2022/09/19 14:45:50;;;;;;;4.57;1.40;;;;;;;;;;4936184;28;20138;-76
2022/09/19 14:48:33;;;;;;;7.70;1.40;;;;;;;;;;4933608;29;20035;-72
2022/09/19 14:51:04;;;;;;;2.40;0.97;;;;;;;;;;4934351;29;20020;-76
2022/09/19 14:53:33;;;;;;;4.00;1.08;;;;;;;;;;4933476;29;20024;-72
2022/09/19 14:56:06;;;;;;;3.88;1.17;;;;;;;;;;4932954;28;20023;-74
2022/09/19 14:58:33;;;;;;;2.30;0.57;;;;;;;;;;4937701;28;20039;-74
2022/09/19 15:01:06;;;;;;;3.53;0.75;;;;;;;;;;4935840;29;20392;-76
2022/09/19 15:03:52;;;;;;;3.35;1.48;;;;;;;;;;4932060;28;20023;-73
2022/09/19 15:06:26;;;;;;;6.47;1.27;;;;;;;;;;4923436;29;20075;-74
2022/09/19 15:08:52;;;;;;;9.32;1.17;;;;;;;;;;4933959;29;20028;-76
2022/09/19 15:11:20;;;;;;;4.05;1.13;;;;;;;;;;4934639;29;20130;-74
2022/09/19 15:13:46;;;;;;;1.38;0.70;;;;;;;;;;4932531;29;20400;-74
2022/09/19 15:16:13;;;;;;;2.65;0.95;;;;;;;;;;4933089;29;20028;-73